createdAt,value
2023-01-13T00:01:26.337Z,9.30
2023-01-13T00:03:54.360Z,10.23
2023-01-13T00:06:27.943Z,10.80
2023-01-13T00:08:55.576Z,10.53
2023-01-13T00:11:22.983Z,10.50
2023-01-13T00:13:50.218Z,12.00
2023-01-13T00:16:19.489Z,11.10
2023-01-13T00:18:47.370Z,10.80
2023-01-13T00:21:19.112Z,10.77
2023-01-13T00:23:47.289Z,11.50
2023-01-13T00:26:20.661Z,10.93
2023-01-13T00:28:49.178Z,12.23
2023-01-13T00:31:21.173Z,8.60
2023-01-13T00:33:49.470Z,11.30
2023-01-13T00:36:19.482Z,9.57
2023-01-13T00:38:47.942Z,8.83
2023-01-13T00:41:18.501Z,6.85
2023-01-13T00:43:46.323Z,8.77
2023-01-13T00:46:20.358Z,7.68
2023-01-13T00:48:48.299Z,9.27
2023-01-13T00:51:18.877Z,6.63
2023-01-13T00:53:51.565Z,8.17
2023-01-13T00:56:38.416Z,11.40
2023-01-13T00:59:07.427Z,9.20
2023-01-13T01:01:35.184Z,6.97
2023-01-13T01:04:02.509Z,9.57
2023-01-13T01:06:30.067Z,35.97
2023-01-13T01:08:57.746Z,25.63
2023-01-13T01:11:32.627Z,10.70
2023-01-13T01:14:02.921Z,9.83
2023-01-13T01:16:31.831Z,22.47
2023-01-13T01:21:28.968Z,13.80
2023-01-13T01:23:59.687Z,13.95
2023-01-13T01:26:29.028Z,14.07
2023-01-13T01:28:56.646Z,12.35
2023-01-13T01:31:33.903Z,12.23
2023-01-13T01:34:02.003Z,8.83
2023-01-13T01:36:32.125Z,16.87
2023-01-13T01:39:00.206Z,10.40
2023-01-13T01:41:32.093Z,9.23
2023-01-13T01:44:08.340Z,8.07
2023-01-13T01:46:42.489Z,11.47
2023-01-13T01:49:24.746Z,10.40
2023-01-13T01:52:00.843Z,11.30
2023-01-13T01:54:34.550Z,12.30
2023-01-13T01:57:02.423Z,12.93
2023-01-13T01:59:32.700Z,12.93
2023-01-13T02:02:00.366Z,20.50
2023-01-13T02:04:34.746Z,12.93
2023-01-13T02:07:03.505Z,20.47
2023-01-13T02:09:31.419Z,12.05
2023-01-13T02:12:17.395Z,11.83
2023-01-13T02:14:45.950Z,10.13
2023-01-13T02:17:22.359Z,14.07
2023-01-13T02:20:21.590Z,8.63
2023-01-13T02:22:54.965Z,10.25
2023-01-13T02:25:57.545Z,11.30
2023-01-13T02:29:08.743Z,14.63
2023-01-13T02:31:43.264Z,13.80
2023-01-13T02:34:23.064Z,11.43
2023-01-13T02:36:58.450Z,11.27
2023-01-13T02:39:28.867Z,7.70
2023-01-13T02:42:56.755Z,11.97
2023-01-13T02:45:31.597Z,12.17
2023-01-13T02:48:02.114Z,14.63
2023-01-13T02:50:35.534Z,9.47
2023-01-13T02:53:16.490Z,12.03
2023-01-13T02:55:49.953Z,10.50
2023-01-13T02:58:24.295Z,9.83
2023-01-13T03:00:52.479Z,10.63
2023-01-13T03:03:20.195Z,12.77
2023-01-13T03:05:51.719Z,13.33
2023-01-13T03:08:27.371Z,9.43
2023-01-13T03:11:13.051Z,8.87
2023-01-13T03:14:31.762Z,13.00
2023-01-13T03:17:37.657Z,13.38
2023-01-13T03:20:07.417Z,10.53
2023-01-13T03:22:45.569Z,14.47
2023-01-13T03:25:13.087Z,14.20
2023-01-13T03:27:53.048Z,11.17
2023-01-13T03:30:27.252Z,12.73
2023-01-13T03:33:27.993Z,11.20
2023-01-13T03:36:02.109Z,12.03
2023-01-13T03:38:39.939Z,9.73
2023-01-13T03:41:12.152Z,19.90
2023-01-13T03:44:08.575Z,10.13
2023-01-13T03:46:52.312Z,8.73
2023-01-13T03:49:24.538Z,7.97
2023-01-13T03:51:57.278Z,11.73
2023-01-13T03:54:28.467Z,11.67
2023-01-13T03:57:00.793Z,11.97
2023-01-13T03:59:33.499Z,16.20
2023-01-13T04:02:36.667Z,11.10
2023-01-13T04:05:09.365Z,12.13
2023-01-13T04:08:01.858Z,10.43
2023-01-13T04:10:40.211Z,14.13
2023-01-13T04:13:13.138Z,12.73
2023-01-13T04:15:44.514Z,11.20
2023-01-13T04:18:22.274Z,9.53
2023-01-13T04:20:53.161Z,10.73
2023-01-13T04:23:21.880Z,9.87
2023-01-13T04:25:50.739Z,9.05
2023-01-13T04:28:18.739Z,7.95
2023-01-13T04:30:46.603Z,10.70
2023-01-13T04:33:15.949Z,7.77
2023-01-13T04:35:45.134Z,8.27
2023-01-13T04:38:18.538Z,7.80
2023-01-13T04:40:46.718Z,6.90
2023-01-13T04:43:15.939Z,7.33
2023-01-13T04:48:11.917Z,8.37
2023-01-13T04:50:39.683Z,9.00
2023-01-13T04:53:07.290Z,10.73
2023-01-13T04:55:35.883Z,10.20
2023-01-13T04:58:05.727Z,8.98
2023-01-13T05:03:03.387Z,6.33
2023-01-13T05:05:31.036Z,8.77
2023-01-13T05:07:58.642Z,8.27
2023-01-13T05:10:27.505Z,8.40
2023-01-13T05:13:13.334Z,5.87
2023-01-13T05:16:00.938Z,9.83
2023-01-13T05:18:30.969Z,9.33
2023-01-13T05:20:58.705Z,6.53
2023-01-13T05:23:44.895Z,7.30
2023-01-13T05:26:12.504Z,6.33
2023-01-13T05:28:39.844Z,6.07
2023-01-13T05:31:07.278Z,5.67
2023-01-13T05:33:36.149Z,5.07
2023-01-13T05:36:03.986Z,4.65
2023-01-13T05:38:31.303Z,5.70
2023-01-13T05:41:18.864Z,6.33
2023-01-13T05:43:46.186Z,7.37
2023-01-13T05:46:15.048Z,7.40
2023-01-13T05:48:43.610Z,8.30
2023-01-13T05:51:13.095Z,21.17
2023-01-13T05:53:43.724Z,17.00
2023-01-13T05:56:11.649Z,22.90
2023-01-13T06:01:08.877Z,14.83
2023-01-13T06:03:36.941Z,15.67
2023-01-13T06:06:04.704Z,15.53
2023-01-13T06:08:32.819Z,25.93
2023-01-13T06:11:00.480Z,38.47
2023-01-13T06:13:28.261Z,42.33
2023-01-13T06:15:59.589Z,16.60
2023-01-13T06:18:28.355Z,10.93
2023-01-13T06:20:56.397Z,10.03
2023-01-13T06:26:05.845Z,6.77
2023-01-13T06:28:33.509Z,4.50
2023-01-13T06:31:04.466Z,6.23
2023-01-13T06:33:38.874Z,7.40
2023-01-13T06:36:14.152Z,33.43
2023-01-13T06:38:45.902Z,18.97
2023-01-13T06:41:13.932Z,7.43
2023-01-13T06:43:41.650Z,4.80
2023-01-13T06:46:08.986Z,5.13
2023-01-13T06:48:36.802Z,4.47
2023-01-13T06:51:05.054Z,3.40
2023-01-13T06:53:32.649Z,4.93
2023-01-13T06:56:00.318Z,6.17
2023-01-13T06:58:27.685Z,4.83
2023-01-13T07:00:55.117Z,4.90
2023-01-13T07:03:22.777Z,5.33
2023-01-13T07:05:56.499Z,5.37
2023-01-13T07:08:25.128Z,5.37
2023-01-13T07:10:53.248Z,6.63
2023-01-13T07:13:47.592Z,6.67
2023-01-13T07:16:15.426Z,10.07
2023-01-13T07:18:42.765Z,6.53
2023-01-13T07:21:13.388Z,14.00
2023-01-13T07:23:42.030Z,10.53
2023-01-13T07:26:10.185Z,11.47
2023-01-13T07:28:38.475Z,10.57
2023-01-13T07:31:14.389Z,10.35
2023-01-13T07:33:41.862Z,11.97
2023-01-13T07:38:40.065Z,13.13
2023-01-13T07:41:26.486Z,12.80
2023-01-13T07:43:54.353Z,13.47
2023-01-13T07:46:21.664Z,11.70
2023-01-13T07:48:49.310Z,12.53
2023-01-13T07:51:17.426Z,13.47
2023-01-13T07:53:44.990Z,11.37
2023-01-13T07:56:12.286Z,10.07
2023-01-13T07:58:40.305Z,13.43
2023-01-13T08:01:12.798Z,11.47
2023-01-13T08:03:41.204Z,10.10
2023-01-13T08:06:09.922Z,10.40
2023-01-13T08:08:38.257Z,9.50
2023-01-13T08:11:07.766Z,11.32
2023-01-13T08:13:35.387Z,10.48
2023-01-13T08:16:08.373Z,7.57
2023-01-13T08:18:37.654Z,7.47
2023-01-13T08:21:11.701Z,20.73
2023-01-13T08:23:40.360Z,20.00
2023-01-13T08:26:13.834Z,11.75
2023-01-13T08:28:41.853Z,11.80
2023-01-13T08:31:14.751Z,7.73
2023-01-13T08:33:42.789Z,15.47
2023-01-13T08:36:12.542Z,8.57
2023-01-13T08:38:41.290Z,8.63
2023-01-13T08:41:12.787Z,6.73
2023-01-13T08:43:40.189Z,6.50
2023-01-13T08:46:07.840Z,4.70
2023-01-13T08:48:35.732Z,6.20
2023-01-13T08:51:08.289Z,5.80
2023-01-13T08:53:36.368Z,5.10
2023-01-13T08:56:11.205Z,5.70
2023-01-13T08:58:39.257Z,6.20
2023-01-13T09:01:08.726Z,5.07
2023-01-13T09:03:36.254Z,5.43
2023-01-13T09:06:04.278Z,10.53
2023-01-13T09:08:31.863Z,10.70
2023-01-13T09:10:59.890Z,5.63
2023-01-13T09:13:27.749Z,4.85
2023-01-13T09:15:56.949Z,4.27
2023-01-13T09:18:24.528Z,6.13
2023-01-13T09:20:52.326Z,6.47
2023-01-13T09:23:20.187Z,4.80
2023-01-13T09:25:48.532Z,4.23
2023-01-13T09:28:16.250Z,4.62
2023-01-13T09:30:43.682Z,5.90
2023-01-13T09:33:29.443Z,3.90
2023-01-13T09:36:01.340Z,4.07
2023-01-13T09:38:28.892Z,4.30
2023-01-13T09:40:56.775Z,6.73
2023-01-13T09:43:53.705Z,9.97
2023-01-13T09:46:47.379Z,14.77
2023-01-13T09:49:31.370Z,6.67
2023-01-13T09:52:07.806Z,7.77
2023-01-13T09:54:43.393Z,5.97
2023-01-13T09:57:16.102Z,7.83
2023-01-13T09:59:44.401Z,8.43
2023-01-13T10:02:15.190Z,6.72
2023-01-13T10:04:42.945Z,5.90
2023-01-13T10:07:15.272Z,4.63
2023-01-13T10:09:52.811Z,4.17
2023-01-13T10:12:43.510Z,5.07
2023-01-13T10:15:17.013Z,4.47
2023-01-13T10:18:11.916Z,3.63
2023-01-13T10:21:15.245Z,6.30
2023-01-13T10:23:57.162Z,6.53
2023-01-13T10:26:44.367Z,7.03
2023-01-13T10:29:27.694Z,5.83
2023-01-13T10:31:56.980Z,6.10
2023-01-13T10:34:25.590Z,4.68
2023-01-13T10:37:03.247Z,6.45
2023-01-13T10:39:40.931Z,10.03
2023-01-13T10:42:17.353Z,9.53
2023-01-13T10:44:49.344Z,9.97
2023-01-13T10:47:27.222Z,11.37
2023-01-13T10:50:06.042Z,11.13
2023-01-13T10:52:38.549Z,12.57
2023-01-13T10:55:30.504Z,11.40
2023-01-13T10:57:58.171Z,8.93
2023-01-13T11:00:33.107Z,11.27
2023-01-13T11:03:12.923Z,10.23
2023-01-13T11:05:51.729Z,11.67
2023-01-13T11:08:31.502Z,12.52
2023-01-13T11:11:00.682Z,15.87
2023-01-13T11:14:02.627Z,14.18
2023-01-13T11:16:30.781Z,13.77
2023-01-13T11:19:13.527Z,15.73
2023-01-13T11:21:58.421Z,15.87
2023-01-13T11:24:45.011Z,17.43
2023-01-13T11:27:33.095Z,31.17
2023-01-13T11:30:33.269Z,21.30
2023-01-13T11:33:10.123Z,14.30
2023-01-13T11:36:06.267Z,25.43
2023-01-13T11:38:57.243Z,17.20
2023-01-13T11:41:37.827Z,21.37
2023-01-13T11:44:18.391Z,19.27
2023-01-13T11:46:50.382Z,16.05
2023-01-13T11:49:31.115Z,18.23
2023-01-13T11:52:18.687Z,23.47
2023-01-13T11:55:01.930Z,21.13
2023-01-13T11:57:57.432Z,19.00
2023-01-13T12:00:50.497Z,17.33
2023-01-13T12:03:35.876Z,16.90
2023-01-13T12:06:08.887Z,19.57
2023-01-13T12:08:52.972Z,13.50
2023-01-13T12:11:33.855Z,14.47
2023-01-13T12:14:25.016Z,14.53
2023-01-13T12:16:52.333Z,12.90
2023-01-13T12:19:29.288Z,17.83
2023-01-13T12:22:03.173Z,20.73
2023-01-13T12:24:40.959Z,14.87
2023-01-13T12:27:21.327Z,12.83
2023-01-13T12:29:52.328Z,13.70
2023-01-13T12:32:25.233Z,14.77
2023-01-13T12:35:17.336Z,11.33
2023-01-13T12:37:54.607Z,12.87
2023-01-13T12:40:41.717Z,16.40
2023-01-13T12:43:35.006Z,15.97
2023-01-13T12:46:24.682Z,12.63
2023-01-13T12:51:25.371Z,10.63
2023-01-13T12:53:55.057Z,12.07
2023-01-13T12:56:36.482Z,9.97
2023-01-13T12:59:19.605Z,12.10
2023-01-13T13:01:49.475Z,17.10
2023-01-13T13:04:20.841Z,14.77
2023-01-13T13:07:26.799Z,46.57
2023-01-13T13:09:57.796Z,27.60
2023-01-13T13:12:50.114Z,15.07
2023-01-13T13:15:28.952Z,24.40
2023-01-13T13:20:54.170Z,13.23
2023-01-13T13:23:53.229Z,17.43
2023-01-13T13:26:28.790Z,13.65
2023-01-13T13:29:24.339Z,11.93
2023-01-13T13:32:36.311Z,23.87
2023-01-13T13:35:43.389Z,42.63
2023-01-13T13:38:41.552Z,30.77
2023-01-13T13:41:37.288Z,15.77
2023-01-13T13:44:48.601Z,10.40
2023-01-13T13:47:16.460Z,6.87
2023-01-13T13:49:54.332Z,14.07
2023-01-13T13:52:32.069Z,19.00
2023-01-13T13:55:08.926Z,25.33
2023-01-13T13:57:42.714Z,42.17
2023-01-13T14:00:17.271Z,43.13
2023-01-13T14:03:19.649Z,46.23
2023-01-13T14:06:02.847Z,36.53
2023-01-13T14:08:34.062Z,21.27
2023-01-13T14:11:02.003Z,14.33
2023-01-13T14:13:31.825Z,9.17
2023-01-13T14:16:04.815Z,8.60
2023-01-13T14:18:45.868Z,6.60
2023-01-13T14:21:26.391Z,6.97
2023-01-13T14:23:56.785Z,6.90
2023-01-13T14:26:27.711Z,9.50
2023-01-13T14:28:56.819Z,10.17
2023-01-13T14:31:25.329Z,12.60
2023-01-13T14:33:55.903Z,11.33
2023-01-13T14:36:25.715Z,21.07
2023-01-13T14:39:05.535Z,34.43
2023-01-13T14:41:53.641Z,17.27
2023-01-13T14:44:32.426Z,10.07
2023-01-13T14:47:17.457Z,12.13
2023-01-13T14:49:57.099Z,7.23
2023-01-13T14:55:04.907Z,24.40
2023-01-13T14:57:34.181Z,41.03
2023-01-13T15:00:13.859Z,41.10
2023-01-13T15:03:13.736Z,32.43
2023-01-13T15:05:52.555Z,26.97
2023-01-13T15:08:28.263Z,66.35
2023-01-13T15:11:02.315Z,34.73
2023-01-13T15:13:38.134Z,19.80
2023-01-13T15:16:13.619Z,21.37
2023-01-13T15:18:41.458Z,18.33
2023-01-13T15:21:09.683Z,26.87
2023-01-13T15:23:38.653Z,17.70
2023-01-13T15:26:23.055Z,15.63
2023-01-13T15:28:51.852Z,17.07
2023-01-13T15:31:19.756Z,17.40
2023-01-13T15:33:47.329Z,19.07
2023-01-13T15:36:27.934Z,24.60
2023-01-13T15:38:55.656Z,22.93
2023-01-13T15:41:42.811Z,24.43
2023-01-13T15:44:30.307Z,21.23
2023-01-13T15:47:00.732Z,22.50
2023-01-13T15:49:45.337Z,17.43
2023-01-13T15:52:23.638Z,12.47
2023-01-13T15:54:51.966Z,12.50
2023-01-13T15:57:28.501Z,15.30
2023-01-13T15:59:58.269Z,18.77
2023-01-13T16:02:26.945Z,14.10
2023-01-13T16:04:55.000Z,12.57
2023-01-13T16:07:24.633Z,9.10
2023-01-13T16:09:52.511Z,10.77
2023-01-13T16:12:20.461Z,10.93
2023-01-13T16:14:47.764Z,10.40
2023-01-13T16:17:21.895Z,15.03
2023-01-13T16:19:50.035Z,10.53
2023-01-13T16:22:18.736Z,15.23
2023-01-13T16:24:46.351Z,19.40
2023-01-13T16:27:17.695Z,14.53
2023-01-13T16:29:46.071Z,20.23
2023-01-13T16:32:14.833Z,27.70
2023-01-13T16:34:43.067Z,20.17
2023-01-13T16:37:26.291Z,10.90
2023-01-13T16:39:54.577Z,11.57
2023-01-13T16:42:22.176Z,25.30
2023-01-13T16:44:50.867Z,25.37
2023-01-13T16:47:19.129Z,48.65
2023-01-13T16:49:46.603Z,52.23
2023-01-13T16:52:14.259Z,69.00
2023-01-13T16:54:41.843Z,62.77
2023-01-13T16:57:13.410Z,50.93
2023-01-13T16:59:40.745Z,43.17
2023-01-13T17:02:16.075Z,41.40
2023-01-13T17:04:43.679Z,42.27
2023-01-13T17:07:17.230Z,32.43
2023-01-13T17:09:44.793Z,36.00
2023-01-13T17:12:12.550Z,41.27
2023-01-13T17:14:40.227Z,34.23
2023-01-13T17:17:19.919Z,37.43
2023-01-13T17:19:47.593Z,42.23
2023-01-13T17:22:15.144Z,34.40
2023-01-13T17:24:42.762Z,42.97
2023-01-13T17:27:10.463Z,41.83
2023-01-13T17:29:38.527Z,55.83
2023-01-13T17:32:06.110Z,52.93
2023-01-13T17:34:33.855Z,35.83
2023-01-13T17:37:01.205Z,22.13
2023-01-13T17:39:28.538Z,25.33
2023-01-13T17:41:56.146Z,22.53
2023-01-13T17:44:23.755Z,19.87
2023-01-13T17:46:51.505Z,18.83
2023-01-13T17:49:21.994Z,18.23
2023-01-13T17:51:51.239Z,15.30
2023-01-13T17:54:21.138Z,13.27
2023-01-13T17:56:48.481Z,13.55
2023-01-13T17:59:18.723Z,15.00
2023-01-13T18:01:46.994Z,23.17
2023-01-13T18:04:21.441Z,27.23
2023-01-13T18:06:49.341Z,29.93
2023-01-13T18:09:18.067Z,35.90
2023-01-13T18:11:47.207Z,57.77
2023-01-13T18:14:16.530Z,64.80
2023-01-13T18:16:44.379Z,40.55
2023-01-13T18:19:30.261Z,43.43
2023-01-13T18:22:16.536Z,44.03
2023-01-13T18:25:03.034Z,39.63
2023-01-13T18:27:38.226Z,27.17
2023-01-13T18:30:06.817Z,24.07
2023-01-13T18:32:34.987Z,17.37
2023-01-13T18:35:06.641Z,16.73
2023-01-13T18:37:42.410Z,18.40
2023-01-13T18:40:13.404Z,52.93
2023-01-13T18:42:58.439Z,55.43
2023-01-13T18:45:29.506Z,36.97
2023-01-13T18:48:00.585Z,42.70
2023-01-13T18:50:28.577Z,43.33
2023-01-13T18:52:56.856Z,34.17
2023-01-13T18:55:25.177Z,39.65
2023-01-13T18:57:53.395Z,28.47
2023-01-13T19:00:22.346Z,27.57
2023-01-13T19:05:35.370Z,32.27
2023-01-13T19:08:04.101Z,45.03
2023-01-13T19:10:32.804Z,43.37
2023-01-13T19:13:01.852Z,47.88
